sensor_id;sensor_type;location;lat;lon;timestamp;P1;durP1;ratioP1;P2;durP2;ratioP2
4585;SDS011;2305;50.118;8.952;2023-02-08T00:01:21;5.27;;;3.40;;
4585;SDS011;2305;50.118;8.952;2023-02-08T00:03:53;7.80;;;4.37;;
4585;SDS011;2305;50.118;8.952;2023-02-08T00:06:26;7.47;;;4.43;;
4585;SDS011;2305;50.118;8.952;2023-02-08T00:08:53;9.67;;;4.97;;
4585;SDS011;2305;50.118;8.952;2023-02-08T00:11:21;7.40;;;4.57;;
4585;SDS011;2305;50.118;8.952;2023-02-08T00:13:49;7.90;;;4.20;;
4585;SDS011;2305;50.118;8.952;2023-02-08T00:16:18;8.00;;;4.40;;
4585;SDS011;2305;50.118;8.952;2023-02-08T00:18:48;6.43;;;4.20;;
4585;SDS011;2305;50.118;8.952;2023-02-08T00:21:17;11.20;;;4.63;;
4585;SDS011;2305;50.118;8.952;2023-02-08T00:23:50;6.00;;;4.53;;
4585;SDS011;2305;50.118;8.952;2023-02-08T00:26:18;9.87;;;4.80;;
4585;SDS011;2305;50.118;8.952;2023-02-08T00:28:46;8.27;;;4.63;;
4585;SDS011;2305;50.118;8.952;2023-02-08T00:31:16;6.30;;;4.03;;
4585;SDS011;2305;50.118;8.952;2023-02-08T00:33:45;8.63;;;4.80;;
4585;SDS011;2305;50.118;8.952;2023-02-08T00:36:13;7.67;;;4.67;;
4585;SDS011;2305;50.118;8.952;2023-02-08T00:38:44;9.40;;;4.90;;
4585;SDS011;2305;50.118;8.952;2023-02-08T00:41:14;10.80;;;4.80;;
4585;SDS011;2305;50.118;8.952;2023-02-08T00:43:44;10.33;;;5.03;;
4585;SDS011;2305;50.118;8.952;2023-02-08T00:46:14;10.90;;;4.90;;
4585;SDS011;2305;50.118;8.952;2023-02-08T00:48:43;7.30;;;5.07;;
4585;SDS011;2305;50.118;8.952;2023-02-08T00:51:11;9.80;;;5.60;;
4585;SDS011;2305;50.118;8.952;2023-02-08T00:53:41;10.70;;;5.37;;
4585;SDS011;2305;50.118;8.952;2023-02-08T00:56:14;11.70;;;5.93;;
4585;SDS011;2305;50.118;8.952;2023-02-08T00:58:43;11.20;;;5.83;;
4585;SDS011;2305;50.118;8.952;2023-02-08T01:01:12;10.67;;;5.33;;
4585;SDS011;2305;50.118;8.952;2023-02-08T01:03:41;15.03;;;5.60;;
4585;SDS011;2305;50.118;8.952;2023-02-08T01:06:12;8.30;;;5.07;;
4585;SDS011;2305;50.118;8.952;2023-02-08T01:08:43;10.17;;;4.63;;
4585;SDS011;2305;50.118;8.952;2023-02-08T01:11:12;10.23;;;5.27;;
4585;SDS011;2305;50.118;8.952;2023-02-08T01:13:44;7.53;;;4.50;;
4585;SDS011;2305;50.118;8.952;2023-02-08T01:16:12;12.70;;;5.17;;
4585;SDS011;2305;50.118;8.952;2023-02-08T01:18:43;7.70;;;4.90;;
4585;SDS011;2305;50.118;8.952;2023-02-08T01:21:16;7.97;;;4.90;;
4585;SDS011;2305;50.118;8.952;2023-02-08T01:23:46;10.50;;;5.13;;
4585;SDS011;2305;50.118;8.952;2023-02-08T01:26:16;11.63;;;5.50;;
4585;SDS011;2305;50.118;8.952;2023-02-08T01:28:46;7.43;;;4.50;;
4585;SDS011;2305;50.118;8.952;2023-02-08T01:31:16;8.30;;;4.87;;
4585;SDS011;2305;50.118;8.952;2023-02-08T01:33:47;6.83;;;4.60;;
4585;SDS011;2305;50.118;8.952;2023-02-08T01:36:18;8.33;;;5.57;;
4585;SDS011;2305;50.118;8.952;2023-02-08T01:38:46;7.87;;;4.83;;
4585;SDS011;2305;50.118;8.952;2023-02-08T01:41:18;7.53;;;4.43;;
4585;SDS011;2305;50.118;8.952;2023-02-08T01:43:59;6.07;;;4.23;;
4585;SDS011;2305;50.118;8.952;2023-02-08T01:46:45;7.90;;;4.00;;
4585;SDS011;2305;50.118;8.952;2023-02-08T01:49:19;9.13;;;3.53;;
4585;SDS011;2305;50.118;8.952;2023-02-08T01:51:52;8.20;;;4.30;;
4585;SDS011;2305;50.118;8.952;2023-02-08T01:54:27;8.67;;;4.63;;
4585;SDS011;2305;50.118;8.952;2023-02-08T01:57:06;7.23;;;4.37;;
4585;SDS011;2305;50.118;8.952;2023-02-08T01:59:36;9.43;;;4.77;;
4585;SDS011;2305;50.118;8.952;2023-02-08T02:02:08;6.10;;;4.20;;
4585;SDS011;2305;50.118;8.952;2023-02-08T02:04:39;6.03;;;4.20;;
4585;SDS011;2305;50.118;8.952;2023-02-08T02:07:09;5.87;;;4.10;;
4585;SDS011;2305;50.118;8.952;2023-02-08T02:09:39;6.60;;;4.00;;
4585;SDS011;2305;50.118;8.952;2023-02-08T02:12:12;9.93;;;4.67;;
4585;SDS011;2305;50.118;8.952;2023-02-08T02:14:41;7.50;;;4.67;;
4585;SDS011;2305;50.118;8.952;2023-02-08T02:17:11;7.20;;;4.40;;
4585;SDS011;2305;50.118;8.952;2023-02-08T02:19:43;6.43;;;3.77;;
4585;SDS011;2305;50.118;8.952;2023-02-08T02:22:32;8.33;;;4.43;;
4585;SDS011;2305;50.118;8.952;2023-02-08T02:25:21;6.30;;;4.20;;
4585;SDS011;2305;50.118;8.952;2023-02-08T02:28:13;8.20;;;4.63;;
4585;SDS011;2305;50.118;8.952;2023-02-08T02:31:22;6.27;;;4.23;;
4585;SDS011;2305;50.118;8.952;2023-02-08T02:34:09;8.73;;;4.33;;
4585;SDS011;2305;50.118;8.952;2023-02-08T02:36:47;7.23;;;3.83;;
4585;SDS011;2305;50.118;8.952;2023-02-08T02:39:22;6.53;;;4.20;;
4585;SDS011;2305;50.118;8.952;2023-02-08T02:41:57;7.27;;;4.30;;
4585;SDS011;2305;50.118;8.952;2023-02-08T02:44:51;5.40;;;3.57;;
4585;SDS011;2305;50.118;8.952;2023-02-08T02:47:28;6.63;;;4.17;;
4585;SDS011;2305;50.118;8.952;2023-02-08T02:50:03;6.50;;;4.30;;
4585;SDS011;2305;50.118;8.952;2023-02-08T02:52:38;7.10;;;4.47;;
4585;SDS011;2305;50.118;8.952;2023-02-08T02:55:12;7.43;;;4.70;;
4585;SDS011;2305;50.118;8.952;2023-02-08T02:57:46;8.80;;;3.90;;
4585;SDS011;2305;50.118;8.952;2023-02-08T03:00:19;7.43;;;4.27;;
4585;SDS011;2305;50.118;8.952;2023-02-08T03:02:51;9.23;;;5.07;;
4585;SDS011;2305;50.118;8.952;2023-02-08T03:05:21;14.40;;;4.40;;
4585;SDS011;2305;50.118;8.952;2023-02-08T03:07:59;11.27;;;4.03;;
4585;SDS011;2305;50.118;8.952;2023-02-08T03:10:41;6.53;;;4.33;;
4585;SDS011;2305;50.118;8.952;2023-02-08T03:13:25;8.10;;;4.17;;
4585;SDS011;2305;50.118;8.952;2023-02-08T03:16:01;6.83;;;4.30;;
4585;SDS011;2305;50.118;8.952;2023-02-08T03:18:43;5.13;;;3.70;;
4585;SDS011;2305;50.118;8.952;2023-02-08T03:21:25;10.67;;;4.60;;
4585;SDS011;2305;50.118;8.952;2023-02-08T03:24:00;7.97;;;4.50;;
4585;SDS011;2305;50.118;8.952;2023-02-08T03:26:37;8.30;;;4.77;;
4585;SDS011;2305;50.118;8.952;2023-02-08T03:29:15;8.27;;;4.10;;
4585;SDS011;2305;50.118;8.952;2023-02-08T03:31:52;7.00;;;3.90;;
4585;SDS011;2305;50.118;8.952;2023-02-08T03:34:30;11.20;;;4.60;;
4585;SDS011;2305;50.118;8.952;2023-02-08T03:37:06;7.00;;;4.23;;
4585;SDS011;2305;50.118;8.952;2023-02-08T03:39:38;7.20;;;4.40;;
4585;SDS011;2305;50.118;8.952;2023-02-08T03:42:09;6.87;;;4.33;;
4585;SDS011;2305;50.118;8.952;2023-02-08T03:44:44;7.73;;;4.33;;
4585;SDS011;2305;50.118;8.952;2023-02-08T03:47:18;7.80;;;4.13;;
4585;SDS011;2305;50.118;8.952;2023-02-08T03:49:52;6.67;;;4.30;;
4585;SDS011;2305;50.118;8.952;2023-02-08T03:52:22;11.13;;;5.17;;
4585;SDS011;2305;50.118;8.952;2023-02-08T03:54:53;8.10;;;4.83;;
4585;SDS011;2305;50.118;8.952;2023-02-08T03:57:25;11.77;;;4.60;;
4585;SDS011;2305;50.118;8.952;2023-02-08T03:59:59;7.30;;;4.10;;
4585;SDS011;2305;50.118;8.952;2023-02-08T04:02:38;8.60;;;4.50;;
4585;SDS011;2305;50.118;8.952;2023-02-08T04:05:11;6.47;;;3.90;;
4585;SDS011;2305;50.118;8.952;2023-02-08T04:07:40;10.63;;;4.90;;
4585;SDS011;2305;50.118;8.952;2023-02-08T04:10:08;7.17;;;4.73;;
4585;SDS011;2305;50.118;8.952;2023-02-08T04:12:37;7.63;;;4.20;;
4585;SDS011;2305;50.118;8.952;2023-02-08T04:15:05;9.57;;;5.17;;
4585;SDS011;2305;50.118;8.952;2023-02-08T04:17:34;4.97;;;3.77;;
4585;SDS011;2305;50.118;8.952;2023-02-08T04:20:02;8.80;;;4.33;;
4585;SDS011;2305;50.118;8.952;2023-02-08T04:22:32;5.83;;;3.90;;
4585;SDS011;2305;50.118;8.952;2023-02-08T04:25:03;6.67;;;3.73;;
4585;SDS011;2305;50.118;8.952;2023-02-08T04:27:32;7.13;;;4.17;;
4585;SDS011;2305;50.118;8.952;2023-02-08T04:30:00;7.17;;;5.03;;
4585;SDS011;2305;50.118;8.952;2023-02-08T04:32:28;7.23;;;4.57;;
4585;SDS011;2305;50.118;8.952;2023-02-08T04:34:57;6.80;;;4.83;;
4585;SDS011;2305;50.118;8.952;2023-02-08T04:37:25;10.33;;;5.07;;
4585;SDS011;2305;50.118;8.952;2023-02-08T04:39:55;6.17;;;3.90;;
4585;SDS011;2305;50.118;8.952;2023-02-08T04:42:23;8.37;;;4.27;;
4585;SDS011;2305;50.118;8.952;2023-02-08T04:44:51;11.00;;;4.80;;
4585;SDS011;2305;50.118;8.952;2023-02-08T04:47:19;7.87;;;4.30;;
4585;SDS011;2305;50.118;8.952;2023-02-08T04:49:48;10.30;;;4.80;;
4585;SDS011;2305;50.118;8.952;2023-02-08T04:52:16;8.53;;;4.30;;
4585;SDS011;2305;50.118;8.952;2023-02-08T04:54:44;8.30;;;4.57;;
4585;SDS011;2305;50.118;8.952;2023-02-08T04:57:13;10.63;;;4.53;;
4585;SDS011;2305;50.118;8.952;2023-02-08T04:59:42;7.33;;;4.83;;
4585;SDS011;2305;50.118;8.952;2023-02-08T05:02:10;7.80;;;4.50;;
4585;SDS011;2305;50.118;8.952;2023-02-08T05:04:38;11.50;;;4.40;;
4585;SDS011;2305;50.118;8.952;2023-02-08T05:07:07;6.43;;;4.87;;
4585;SDS011;2305;50.118;8.952;2023-02-08T05:09:35;8.73;;;5.00;;
4585;SDS011;2305;50.118;8.952;2023-02-08T05:12:04;6.20;;;3.60;;
4585;SDS011;2305;50.118;8.952;2023-02-08T05:14:34;6.73;;;4.27;;
4585;SDS011;2305;50.118;8.952;2023-02-08T05:17:02;9.83;;;4.63;;
4585;SDS011;2305;50.118;8.952;2023-02-08T05:19:30;6.20;;;3.80;;
4585;SDS011;2305;50.118;8.952;2023-02-08T05:21:59;7.33;;;4.83;;
4585;SDS011;2305;50.118;8.952;2023-02-08T05:24:27;9.10;;;4.70;;
4585;SDS011;2305;50.118;8.952;2023-02-08T05:26:56;10.53;;;5.87;;
4585;SDS011;2305;50.118;8.952;2023-02-08T05:29:24;7.37;;;4.53;;
4585;SDS011;2305;50.118;8.952;2023-02-08T05:31:54;6.80;;;4.30;;
4585;SDS011;2305;50.118;8.952;2023-02-08T05:34:22;7.27;;;4.67;;
4585;SDS011;2305;50.118;8.952;2023-02-08T05:36:50;9.20;;;4.40;;
4585;SDS011;2305;50.118;8.952;2023-02-08T05:39:18;17.07;;;4.93;;
4585;SDS011;2305;50.118;8.952;2023-02-08T05:41:46;6.50;;;4.57;;
4585;SDS011;2305;50.118;8.952;2023-02-08T05:44:14;11.30;;;4.20;;
4585;SDS011;2305;50.118;8.952;2023-02-08T05:46:42;6.73;;;3.90;;
4585;SDS011;2305;50.118;8.952;2023-02-08T05:49:12;8.80;;;4.23;;
4585;SDS011;2305;50.118;8.952;2023-02-08T05:51:40;8.80;;;5.43;;
4585;SDS011;2305;50.118;8.952;2023-02-08T05:54:09;7.13;;;4.00;;
4585;SDS011;2305;50.118;8.952;2023-02-08T05:56:37;7.47;;;4.10;;
4585;SDS011;2305;50.118;8.952;2023-02-08T05:59:05;7.20;;;4.70;;
4585;SDS011;2305;50.118;8.952;2023-02-08T06:01:33;7.47;;;4.40;;
4585;SDS011;2305;50.118;8.952;2023-02-08T06:04:02;15.47;;;4.63;;
4585;SDS011;2305;50.118;8.952;2023-02-08T06:06:35;8.50;;;5.00;;
4585;SDS011;2305;50.118;8.952;2023-02-08T06:09:04;7.73;;;4.60;;
4585;SDS011;2305;50.118;8.952;2023-02-08T06:11:32;6.80;;;4.47;;
4585;SDS011;2305;50.118;8.952;2023-02-08T06:14:01;9.80;;;4.40;;
4585;SDS011;2305;50.118;8.952;2023-02-08T06:16:29;9.90;;;4.87;;
4585;SDS011;2305;50.118;8.952;2023-02-08T06:18:59;10.53;;;5.87;;
4585;SDS011;2305;50.118;8.952;2023-02-08T06:21:27;7.50;;;4.47;;
4585;SDS011;2305;50.118;8.952;2023-02-08T06:23:57;7.37;;;4.67;;
4585;SDS011;2305;50.118;8.952;2023-02-08T06:26:25;8.87;;;4.80;;
4585;SDS011;2305;50.118;8.952;2023-02-08T06:28:54;7.63;;;4.93;;
4585;SDS011;2305;50.118;8.952;2023-02-08T06:31:49;9.70;;;5.03;;
4585;SDS011;2305;50.118;8.952;2023-02-08T06:34:19;18.80;;;5.20;;
4585;SDS011;2305;50.118;8.952;2023-02-08T06:36:49;7.60;;;4.30;;
4585;SDS011;2305;50.118;8.952;2023-02-08T06:39:20;14.23;;;4.37;;
4585;SDS011;2305;50.118;8.952;2023-02-08T06:41:48;11.60;;;5.90;;
4585;SDS011;2305;50.118;8.952;2023-02-08T06:44:20;9.90;;;5.10;;
4585;SDS011;2305;50.118;8.952;2023-02-08T06:46:51;15.47;;;6.50;;
4585;SDS011;2305;50.118;8.952;2023-02-08T06:49:20;12.30;;;5.97;;
4585;SDS011;2305;50.118;8.952;2023-02-08T06:51:49;9.50;;;5.50;;
4585;SDS011;2305;50.118;8.952;2023-02-08T06:54:24;10.50;;;5.20;;
4585;SDS011;2305;50.118;8.952;2023-02-08T06:56:52;9.47;;;4.97;;
4585;SDS011;2305;50.118;8.952;2023-02-08T06:59:21;9.17;;;4.90;;
4585;SDS011;2305;50.118;8.952;2023-02-08T07:01:49;9.30;;;4.63;;
4585;SDS011;2305;50.118;8.952;2023-02-08T07:04:20;9.70;;;4.60;;
4585;SDS011;2305;50.118;8.952;2023-02-08T07:06:48;7.93;;;4.43;;
4585;SDS011;2305;50.118;8.952;2023-02-08T07:09:20;7.77;;;4.47;;
4585;SDS011;2305;50.118;8.952;2023-02-08T07:11:50;6.97;;;4.40;;
4585;SDS011;2305;50.118;8.952;2023-02-08T07:14:18;17.43;;;5.80;;
4585;SDS011;2305;50.118;8.952;2023-02-08T07:16:53;6.60;;;4.13;;
4585;SDS011;2305;50.118;8.952;2023-02-08T07:19:22;7.33;;;4.63;;
4585;SDS011;2305;50.118;8.952;2023-02-08T07:21:50;9.80;;;5.30;;
4585;SDS011;2305;50.118;8.952;2023-02-08T07:24:21;9.07;;;4.90;;
4585;SDS011;2305;50.118;8.952;2023-02-08T07:26:51;10.23;;;5.23;;
4585;SDS011;2305;50.118;8.952;2023-02-08T07:29:19;8.10;;;5.90;;
4585;SDS011;2305;50.118;8.952;2023-02-08T07:31:47;8.10;;;5.20;;
4585;SDS011;2305;50.118;8.952;2023-02-08T07:34:16;8.90;;;4.93;;
4585;SDS011;2305;50.118;8.952;2023-02-08T07:36:47;14.60;;;5.20;;
4585;SDS011;2305;50.118;8.952;2023-02-08T07:39:17;13.47;;;5.20;;
4585;SDS011;2305;50.118;8.952;2023-02-08T07:41:46;14.33;;;4.90;;
4585;SDS011;2305;50.118;8.952;2023-02-08T07:44:15;8.87;;;4.73;;
4585;SDS011;2305;50.118;8.952;2023-02-08T07:46:44;8.93;;;5.07;;
4585;SDS011;2305;50.118;8.952;2023-02-08T07:49:12;12.07;;;4.47;;
4585;SDS011;2305;50.118;8.952;2023-02-08T07:51:40;10.37;;;5.47;;
4585;SDS011;2305;50.118;8.952;2023-02-08T07:54:08;7.37;;;4.87;;
4585;SDS011;2305;50.118;8.952;2023-02-08T07:56:39;19.40;;;5.13;;
4585;SDS011;2305;50.118;8.952;2023-02-08T07:59:08;7.40;;;4.87;;
4585;SDS011;2305;50.118;8.952;2023-02-08T08:01:37;17.20;;;5.03;;
4585;SDS011;2305;50.118;8.952;2023-02-08T08:04:08;10.23;;;5.27;;
4585;SDS011;2305;50.118;8.952;2023-02-08T08:06:36;10.17;;;5.57;;
4585;SDS011;2305;50.118;8.952;2023-02-08T08:09:07;8.30;;;5.00;;
4585;SDS011;2305;50.118;8.952;2023-02-08T08:11:35;9.13;;;4.63;;
4585;SDS011;2305;50.118;8.952;2023-02-08T08:14:03;8.70;;;5.13;;
4585;SDS011;2305;50.118;8.952;2023-02-08T08:16:31;11.43;;;6.30;;
4585;SDS011;2305;50.118;8.952;2023-02-08T08:19:01;7.90;;;5.17;;
4585;SDS011;2305;50.118;8.952;2023-02-08T08:21:30;10.30;;;6.13;;
4585;SDS011;2305;50.118;8.952;2023-02-08T08:23:58;12.20;;;6.13;;
4585;SDS011;2305;50.118;8.952;2023-02-08T08:26:26;11.60;;;4.80;;
4585;SDS011;2305;50.118;8.952;2023-02-08T08:28:57;7.27;;;4.73;;
4585;SDS011;2305;50.118;8.952;2023-02-08T08:31:26;6.87;;;4.60;;
4585;SDS011;2305;50.118;8.952;2023-02-08T08:33:56;13.17;;;5.50;;
4585;SDS011;2305;50.118;8.952;2023-02-08T08:36:28;10.73;;;5.20;;
4585;SDS011;2305;50.118;8.952;2023-02-08T08:38:57;9.93;;;5.77;;
4585;SDS011;2305;50.118;8.952;2023-02-08T08:41:25;9.57;;;5.77;;
4585;SDS011;2305;50.118;8.952;2023-02-08T08:43:54;8.77;;;5.00;;
4585;SDS011;2305;50.118;8.952;2023-02-08T08:46:21;12.17;;;5.60;;
4585;SDS011;2305;50.118;8.952;2023-02-08T08:48:50;10.43;;;6.37;;
4585;SDS011;2305;50.118;8.952;2023-02-08T08:51:19;12.47;;;5.97;;
4585;SDS011;2305;50.118;8.952;2023-02-08T08:53:49;10.93;;;5.60;;
4585;SDS011;2305;50.118;8.952;2023-02-08T08:56:17;10.90;;;5.23;;
4585;SDS011;2305;50.118;8.952;2023-02-08T08:58:45;11.77;;;6.00;;
4585;SDS011;2305;50.118;8.952;2023-02-08T09:01:13;9.77;;;5.60;;
4585;SDS011;2305;50.118;8.952;2023-02-08T09:03:42;11.10;;;5.40;;
4585;SDS011;2305;50.118;8.952;2023-02-08T09:06:10;9.90;;;5.93;;
4585;SDS011;2305;50.118;8.952;2023-02-08T09:08:38;9.70;;;5.57;;
4585;SDS011;2305;50.118;8.952;2023-02-08T09:11:09;9.60;;;5.90;;
4585;SDS011;2305;50.118;8.952;2023-02-08T09:13:39;10.07;;;5.73;;
4585;SDS011;2305;50.118;8.952;2023-02-08T09:16:08;11.00;;;6.33;;
4585;SDS011;2305;50.118;8.952;2023-02-08T09:18:40;12.60;;;6.50;;
4585;SDS011;2305;50.118;8.952;2023-02-08T09:21:09;9.83;;;6.23;;
4585;SDS011;2305;50.118;8.952;2023-02-08T09:23:39;11.93;;;6.70;;
4585;SDS011;2305;50.118;8.952;2023-02-08T09:26:09;11.50;;;6.07;;
4585;SDS011;2305;50.118;8.952;2023-02-08T09:28:39;9.60;;;5.90;;
4585;SDS011;2305;50.118;8.952;2023-02-08T09:31:10;12.77;;;6.27;;
4585;SDS011;2305;50.118;8.952;2023-02-08T09:33:41;10.23;;;5.87;;
4585;SDS011;2305;50.118;8.952;2023-02-08T09:36:10;12.00;;;7.10;;
4585;SDS011;2305;50.118;8.952;2023-02-08T09:38:38;11.07;;;5.93;;
4585;SDS011;2305;50.118;8.952;2023-02-08T09:41:13;12.40;;;6.83;;
4585;SDS011;2305;50.118;8.952;2023-02-08T09:43:59;12.80;;;6.80;;
4585;SDS011;2305;50.118;8.952;2023-02-08T09:46:40;12.00;;;7.10;;
4585;SDS011;2305;50.118;8.952;2023-02-08T09:49:13;13.20;;;6.83;;
4585;SDS011;2305;50.118;8.952;2023-02-08T09:51:49;12.50;;;6.70;;
4585;SDS011;2305;50.118;8.952;2023-02-08T09:54:24;12.90;;;6.97;;
4585;SDS011;2305;50.118;8.952;2023-02-08T09:56:57;12.50;;;6.83;;
4585;SDS011;2305;50.118;8.952;2023-02-08T09:59:28;11.70;;;7.80;;
4585;SDS011;2305;50.118;8.952;2023-02-08T10:02:00;14.43;;;7.30;;
4585;SDS011;2305;50.118;8.952;2023-02-08T10:04:39;9.80;;;6.03;;
4585;SDS011;2305;50.118;8.952;2023-02-08T10:07:16;12.80;;;7.93;;
4585;SDS011;2305;50.118;8.952;2023-02-08T10:09:45;13.57;;;6.80;;
4585;SDS011;2305;50.118;8.952;2023-02-08T10:12:16;15.43;;;7.30;;
4585;SDS011;2305;50.118;8.952;2023-02-08T10:14:55;12.97;;;6.70;;
4585;SDS011;2305;50.118;8.952;2023-02-08T10:17:35;12.00;;;6.73;;
4585;SDS011;2305;50.118;8.952;2023-02-08T10:20:18;12.83;;;7.37;;
4585;SDS011;2305;50.118;8.952;2023-02-08T10:22:59;10.90;;;6.43;;
4585;SDS011;2305;50.118;8.952;2023-02-08T10:25:43;12.57;;;7.17;;
4585;SDS011;2305;50.118;8.952;2023-02-08T10:28:25;14.03;;;6.50;;
4585;SDS011;2305;50.118;8.952;2023-02-08T10:31:05;13.37;;;6.70;;
4585;SDS011;2305;50.118;8.952;2023-02-08T10:33:47;9.13;;;5.57;;
4585;SDS011;2305;50.118;8.952;2023-02-08T10:36:24;8.47;;;5.87;;
4585;SDS011;2305;50.118;8.952;2023-02-08T10:38:58;11.43;;;5.90;;
4585;SDS011;2305;50.118;8.952;2023-02-08T10:41:30;12.57;;;5.63;;
4585;SDS011;2305;50.118;8.952;2023-02-08T10:44:04;14.73;;;6.57;;
4585;SDS011;2305;50.118;8.952;2023-02-08T10:46:36;12.23;;;7.27;;
4585;SDS011;2305;50.118;8.952;2023-02-08T10:49:14;10.80;;;5.90;;
4585;SDS011;2305;50.118;8.952;2023-02-08T10:51:48;13.03;;;6.17;;
4585;SDS011;2305;50.118;8.952;2023-02-08T10:54:16;11.90;;;6.30;;
4585;SDS011;2305;50.118;8.952;2023-02-08T10:56:45;10.57;;;6.00;;
4585;SDS011;2305;50.118;8.952;2023-02-08T10:59:19;12.47;;;6.13;;
4585;SDS011;2305;50.118;8.952;2023-02-08T11:01:49;10.70;;;6.23;;
4585;SDS011;2305;50.118;8.952;2023-02-08T11:04:17;13.73;;;6.70;;
4585;SDS011;2305;50.118;8.952;2023-02-08T11:06:47;11.83;;;6.03;;
4585;SDS011;2305;50.118;8.952;2023-02-08T11:09:21;9.53;;;5.70;;
4585;SDS011;2305;50.118;8.952;2023-02-08T11:11:52;13.43;;;6.20;;
4585;SDS011;2305;50.118;8.952;2023-02-08T11:14:26;11.77;;;6.30;;
4585;SDS011;2305;50.118;8.952;2023-02-08T11:17:22;11.30;;;6.33;;
4585;SDS011;2305;50.118;8.952;2023-02-08T11:19:53;11.40;;;6.80;;
4585;SDS011;2305;50.118;8.952;2023-02-08T11:22:22;13.03;;;6.33;;
4585;SDS011;2305;50.118;8.952;2023-02-08T11:24:54;8.77;;;6.10;;
4585;SDS011;2305;50.118;8.952;2023-02-08T11:27:30;11.10;;;5.97;;
4585;SDS011;2305;50.118;8.952;2023-02-08T11:30:16;9.10;;;5.40;;
4585;SDS011;2305;50.118;8.952;2023-02-08T11:32:47;9.50;;;5.90;;
4585;SDS011;2305;50.118;8.952;2023-02-08T11:35:18;9.17;;;5.30;;
4585;SDS011;2305;50.118;8.952;2023-02-08T11:37:48;15.97;;;5.67;;
4585;SDS011;2305;50.118;8.952;2023-02-08T11:40:19;12.67;;;6.60;;
4585;SDS011;2305;50.118;8.952;2023-02-08T11:42:50;12.70;;;5.70;;
4585;SDS011;2305;50.118;8.952;2023-02-08T11:45:22;8.20;;;4.70;;
4585;SDS011;2305;50.118;8.952;2023-02-08T11:47:52;6.87;;;5.10;;
4585;SDS011;2305;50.118;8.952;2023-02-08T11:50:22;11.80;;;4.70;;
4585;SDS011;2305;50.118;8.952;2023-02-08T11:52:54;7.70;;;5.00;;
4585;SDS011;2305;50.118;8.952;2023-02-08T11:55:26;9.33;;;5.33;;
4585;SDS011;2305;50.118;8.952;2023-02-08T11:57:57;6.40;;;4.20;;
4585;SDS011;2305;50.118;8.952;2023-02-08T12:00:30;7.63;;;4.27;;
4585;SDS011;2305;50.118;8.952;2023-02-08T12:03:01;6.10;;;3.97;;
4585;SDS011;2305;50.118;8.952;2023-02-08T12:05:34;8.27;;;4.60;;
4585;SDS011;2305;50.118;8.952;2023-02-08T12:08:13;8.57;;;4.30;;
4585;SDS011;2305;50.118;8.952;2023-02-08T12:10:52;8.57;;;3.87;;
4585;SDS011;2305;50.118;8.952;2023-02-08T12:13:45;5.97;;;4.20;;
4585;SDS011;2305;50.118;8.952;2023-02-08T12:16:28;6.03;;;3.90;;
4585;SDS011;2305;50.118;8.952;2023-02-08T12:19:12;7.30;;;4.10;;
4585;SDS011;2305;50.118;8.952;2023-02-08T12:21:52;6.87;;;4.20;;
4585;SDS011;2305;50.118;8.952;2023-02-08T12:24:28;6.03;;;3.80;;
4585;SDS011;2305;50.118;8.952;2023-02-08T12:27:06;7.77;;;3.73;;
4585;SDS011;2305;50.118;8.952;2023-02-08T12:29:45;7.90;;;4.17;;
4585;SDS011;2305;50.118;8.952;2023-02-08T12:32:30;6.83;;;3.80;;
4585;SDS011;2305;50.118;8.952;2023-02-08T12:38:35;5.83;;;3.67;;
4585;SDS011;2305;50.118;8.952;2023-02-08T12:41:47;4.80;;;3.50;;
4585;SDS011;2305;50.118;8.952;2023-02-08T12:44:29;6.17;;;3.57;;
4585;SDS011;2305;50.118;8.952;2023-02-08T12:47:07;5.93;;;3.53;;
4585;SDS011;2305;50.118;8.952;2023-02-08T12:49:59;8.10;;;3.90;;
4585;SDS011;2305;50.118;8.952;2023-02-08T12:52:35;4.10;;;2.80;;
4585;SDS011;2305;50.118;8.952;2023-02-08T12:55:12;8.77;;;4.17;;
4585;SDS011;2305;50.118;8.952;2023-02-08T12:57:45;8.20;;;3.77;;
4585;SDS011;2305;50.118;8.952;2023-02-08T13:00:21;7.97;;;3.87;;
4585;SDS011;2305;50.118;8.952;2023-02-08T13:02:55;4.90;;;3.40;;
4585;SDS011;2305;50.118;8.952;2023-02-08T13:05:37;6.83;;;3.83;;
4585;SDS011;2305;50.118;8.952;2023-02-08T13:08:29;6.90;;;4.13;;
4585;SDS011;2305;50.118;8.952;2023-02-08T13:11:02;7.10;;;3.67;;
4585;SDS011;2305;50.118;8.952;2023-02-08T13:13:47;5.40;;;3.33;;
4585;SDS011;2305;50.118;8.952;2023-02-08T13:16:23;5.23;;;3.67;;
4585;SDS011;2305;50.118;8.952;2023-02-08T13:19:05;5.37;;;3.83;;
4585;SDS011;2305;50.118;8.952;2023-02-08T13:21:46;7.23;;;3.80;;
4585;SDS011;2305;50.118;8.952;2023-02-08T13:24:24;5.50;;;3.37;;
4585;SDS011;2305;50.118;8.952;2023-02-08T13:27:00;6.90;;;4.27;;
4585;SDS011;2305;50.118;8.952;2023-02-08T13:29:29;6.77;;;3.67;;
4585;SDS011;2305;50.118;8.952;2023-02-08T13:31:59;5.97;;;4.33;;
4585;SDS011;2305;50.118;8.952;2023-02-08T13:34:34;7.33;;;4.30;;
4585;SDS011;2305;50.118;8.952;2023-02-08T13:37:16;5.50;;;3.70;;
4585;SDS011;2305;50.118;8.952;2023-02-08T13:39:56;4.67;;;3.77;;
4585;SDS011;2305;50.118;8.952;2023-02-08T13:42:27;5.87;;;4.23;;
4585;SDS011;2305;50.118;8.952;2023-02-08T13:44:57;6.70;;;3.73;;
4585;SDS011;2305;50.118;8.952;2023-02-08T13:47:27;6.50;;;4.40;;
4585;SDS011;2305;50.118;8.952;2023-02-08T13:49:58;7.10;;;4.33;;
4585;SDS011;2305;50.118;8.952;2023-02-08T13:52:48;5.80;;;3.80;;
4585;SDS011;2305;50.118;8.952;2023-02-08T14:01:31;7.60;;;4.50;;
4585;SDS011;2305;50.118;8.952;2023-02-08T14:12:59;6.17;;;4.67;;
4585;SDS011;2305;50.118;8.952;2023-02-08T14:15:36;6.10;;;4.03;;
4585;SDS011;2305;50.118;8.952;2023-02-08T14:18:21;8.20;;;5.27;;
4585;SDS011;2305;50.118;8.952;2023-02-08T14:20:59;6.53;;;4.47;;
4585;SDS011;2305;50.118;8.952;2023-02-08T14:23:30;8.13;;;4.47;;
4585;SDS011;2305;50.118;8.952;2023-02-08T14:26:06;9.80;;;5.27;;
4585;SDS011;2305;50.118;8.952;2023-02-08T14:28:36;5.80;;;4.03;;
4585;SDS011;2305;50.118;8.952;2023-02-08T14:31:09;7.03;;;4.13;;
4585;SDS011;2305;50.118;8.952;2023-02-08T14:33:41;7.80;;;4.40;;
4585;SDS011;2305;50.118;8.952;2023-02-08T14:36:19;8.10;;;4.70;;
4585;SDS011;2305;50.118;8.952;2023-02-08T14:39:05;8.43;;;4.83;;
4585;SDS011;2305;50.118;8.952;2023-02-08T14:41:52;7.67;;;4.10;;
4585;SDS011;2305;50.118;8.952;2023-02-08T14:47:51;7.40;;;4.13;;
4585;SDS011;2305;50.118;8.952;2023-02-08T14:50:38;6.60;;;4.73;;
4585;SDS011;2305;50.118;8.952;2023-02-08T14:53:15;7.67;;;4.40;;
4585;SDS011;2305;50.118;8.952;2023-02-08T14:55:51;7.20;;;4.43;;
4585;SDS011;2305;50.118;8.952;2023-02-08T14:58:27;6.93;;;4.23;;
4585;SDS011;2305;50.118;8.952;2023-02-08T15:01:00;5.90;;;4.07;;
4585;SDS011;2305;50.118;8.952;2023-02-08T15:03:32;8.00;;;4.63;;
4585;SDS011;2305;50.118;8.952;2023-02-08T15:06:10;8.27;;;4.60;;
4585;SDS011;2305;50.118;8.952;2023-02-08T15:08:53;10.43;;;4.50;;
4585;SDS011;2305;50.118;8.952;2023-02-08T15:11:22;7.67;;;4.37;;
4585;SDS011;2305;50.118;8.952;2023-02-08T15:13:55;6.50;;;4.20;;
4585;SDS011;2305;50.118;8.952;2023-02-08T15:16:28;9.60;;;4.60;;
4585;SDS011;2305;50.118;8.952;2023-02-08T15:19:02;6.40;;;4.10;;
4585;SDS011;2305;50.118;8.952;2023-02-08T15:21:34;8.23;;;4.37;;
4585;SDS011;2305;50.118;8.952;2023-02-08T15:24:10;7.83;;;4.57;;
4585;SDS011;2305;50.118;8.952;2023-02-08T15:26:45;7.10;;;4.50;;
4585;SDS011;2305;50.118;8.952;2023-02-08T15:29:21;6.50;;;4.40;;
4585;SDS011;2305;50.118;8.952;2023-02-08T15:32:03;7.60;;;4.37;;
4585;SDS011;2305;50.118;8.952;2023-02-08T15:34:41;8.60;;;5.03;;
4585;SDS011;2305;50.118;8.952;2023-02-08T15:37:12;6.23;;;4.00;;
4585;SDS011;2305;50.118;8.952;2023-02-08T15:39:43;7.03;;;4.50;;
4585;SDS011;2305;50.118;8.952;2023-02-08T15:42:15;9.07;;;4.80;;
4585;SDS011;2305;50.118;8.952;2023-02-08T15:44:46;8.10;;;4.93;;
4585;SDS011;2305;50.118;8.952;2023-02-08T15:47:16;6.70;;;4.20;;
4585;SDS011;2305;50.118;8.952;2023-02-08T15:49:47;6.27;;;4.23;;
4585;SDS011;2305;50.118;8.952;2023-02-08T15:52:19;7.93;;;4.50;;
4585;SDS011;2305;50.118;8.952;2023-02-08T15:54:50;6.30;;;3.90;;
4585;SDS011;2305;50.118;8.952;2023-02-08T15:57:20;8.73;;;4.47;;
4585;SDS011;2305;50.118;8.952;2023-02-08T15:59:58;9.57;;;4.80;;
4585;SDS011;2305;50.118;8.952;2023-02-08T16:02:27;8.93;;;4.80;;
4585;SDS011;2305;50.118;8.952;2023-02-08T16:04:57;5.90;;;3.87;;
4585;SDS011;2305;50.118;8.952;2023-02-08T16:07:27;6.90;;;4.23;;